Time;durP1;ratioP1;P1;durP2;ratioP2;P2;SDS_P1;SDS_P2;PMS_P1;PMS_P2;Temp;Humidity;BMP_temperature;BMP_pressure;BME280_temperature;BME280_humidity;BME280_pressure;Samples;Min_cycle;Max_cycle;Signal;HPM_P1;HPM_P2
2021/03/20 00:01:41;;;;;;;10.50;2.35;;;16.70;99.90;;;;;;5053285;28;20033;-71
2021/03/20 00:04:08;;;;;;;7.28;2.00;;;16.70;99.90;;;;;;5054283;28;20053;-71
2021/03/20 00:06:36;;;;;;;4.57;1.85;;;16.70;99.90;;;;;;5054748;28;20100;-71
2021/03/20 00:09:07;;;;;;;7.07;1.95;;;16.70;99.90;;;;;;5055209;28;20031;-71
2021/03/20 00:11:33;;;;;;;5.05;1.83;;;16.70;99.90;;;;;;5054706;28;20029;-71
2021/03/20 00:13:59;;;;;;;5.97;1.92;;;16.70;99.90;;;;;;5054230;28;20441;-72
2021/03/20 00:16:25;;;;;;;8.57;2.13;;;16.70;99.90;;;;;;5054645;28;20033;-70
2021/03/20 00:18:51;;;;;;;6.63;1.90;;;16.60;99.90;;;;;;5054834;28;20021;-71
2021/03/20 00:21:17;;;;;;;10.18;2.22;;;16.60;99.90;;;;;;5054796;28;20055;-71
2021/03/20 00:23:43;;;;;;;4.63;1.50;;;16.60;99.90;;;;;;5054403;28;20532;-71
2021/03/20 00:26:09;;;;;;;7.10;1.95;;;16.60;99.90;;;;;;5054423;28;20112;-71
2021/03/20 00:28:34;;;;;;;4.95;1.77;;;16.60;99.90;;;;;;5054861;28;20095;-71
2021/03/20 00:31:06;;;;;;;4.80;1.90;;;16.60;99.90;;;;;;5054735;28;20096;-71
2021/03/20 00:33:32;;;;;;;6.80;1.63;;;16.50;99.90;;;;;;5053959;28;20385;-71
2021/03/20 00:35:58;;;;;;;5.72;1.70;;;16.50;99.90;;;;;;5054416;28;20032;-71
2021/03/20 00:38:26;;;;;;;4.65;1.52;;;16.50;99.90;;;;;;5054055;28;20029;-72
2021/03/20 00:40:54;;;;;;;5.05;1.45;;;16.50;99.90;;;;;;5053890;28;20033;-71
2021/03/20 00:43:20;;;;;;;6.97;1.92;;;16.50;99.90;;;;;;5054101;28;20032;-70
2021/03/20 00:45:45;;;;;;;8.50;1.52;;;16.50;99.90;;;;;;5053872;28;20073;-71
2021/03/20 00:48:15;;;;;;;5.28;1.52;;;16.50;99.90;;;;;;5053884;28;20115;-71
2021/03/20 00:50:41;;;;;;;6.90;1.67;;;16.50;99.90;;;;;;5053881;28;20029;-70
2021/03/20 00:53:07;;;;;;;3.78;1.30;;;16.50;99.90;;;;;;5053910;28;20029;-70
2021/03/20 00:55:33;;;;;;;6.07;1.70;;;16.50;99.90;;;;;;5054225;28;20049;-70
2021/03/20 00:57:58;;;;;;;7.03;1.60;;;16.40;99.90;;;;;;5054049;28;20114;-70
2021/03/20 01:00:26;;;;;;;5.53;1.83;;;16.40;99.90;;;;;;5053374;28;20155;-70
2021/03/20 01:02:52;;;;;;;5.32;1.73;;;16.40;99.90;;;;;;5053381;28;20031;-70
2021/03/20 01:05:19;;;;;;;6.47;1.70;;;16.30;99.90;;;;;;5049925;28;20021;-70
2021/03/20 01:07:46;;;;;;;8.00;1.60;;;16.40;99.90;;;;;;5053681;28;20040;-70
2021/03/20 01:10:16;;;;;;;5.75;1.40;;;16.30;99.90;;;;;;5053740;28;20044;-69
2021/03/20 01:12:42;;;;;;;5.20;1.60;;;16.30;99.90;;;;;;5053405;28;20108;-70
2021/03/20 01:15:09;;;;;;;6.10;1.77;;;16.30;99.90;;;;;;5053345;28;20512;-68
2021/03/20 01:17:35;;;;;;;5.90;1.38;;;16.20;99.90;;;;;;5053808;28;20397;-69
2021/03/20 01:20:01;;;;;;;4.70;1.45;;;16.30;99.90;;;;;;5053561;28;20025;-70
2021/03/20 01:22:26;;;;;;;5.35;1.42;;;16.20;99.90;;;;;;5053420;28;20029;-70
2021/03/20 01:24:52;;;;;;;4.60;1.48;;;16.20;99.90;;;;;;5053424;28;20037;-71
2021/03/20 01:27:18;;;;;;;5.78;1.55;;;16.20;99.90;;;;;;5053335;28;20027;-70
2021/03/20 01:29:44;;;;;;;5.38;1.58;;;16.20;99.90;;;;;;5053044;28;20108;-71
2021/03/20 01:32:09;;;;;;;9.13;1.30;;;16.20;99.90;;;;;;5053451;28;20108;-70
2021/03/20 01:34:35;;;;;;;4.95;1.40;;;16.20;99.90;;;;;;5053124;28;20507;-72
2021/03/20 01:37:00;;;;;;;4.55;1.50;;;16.20;99.90;;;;;;5053109;28;20033;-71
2021/03/20 01:39:27;;;;;;;3.10;1.30;;;16.10;99.90;;;;;;5053181;28;20048;-70
2021/03/20 01:41:52;;;;;;;3.45;1.33;;;16.10;99.90;;;;;;5052661;28;20039;-69
2021/03/20 01:44:21;;;;;;;1.65;1.08;;;16.10;99.90;;;;;;5052769;28;20025;-70
2021/03/20 01:46:54;;;;;;;5.60;1.50;;;16.10;99.90;;;;;;5052617;28;20053;-69
2021/03/20 01:49:40;;;;;;;9.90;1.40;;;16.10;99.90;;;;;;5053031;28;20127;-69
2021/03/20 01:52:19;;;;;;;6.80;1.75;;;16.10;99.90;;;;;;5053113;28;20488;-69
2021/03/20 01:54:52;;;;;;;4.28;1.52;;;16.10;99.90;;;;;;5045582;28;20087;-70
2021/03/20 01:57:25;;;;;;;7.35;1.30;;;16.00;99.90;;;;;;5052712;28;20074;-69
2021/03/20 01:59:51;;;;;;;4.53;1.60;;;16.00;99.90;;;;;;5052785;28;20048;-70
2021/03/20 02:02:16;;;;;;;5.93;1.10;;;16.00;99.90;;;;;;5052333;28;20037;-70
2021/03/20 02:04:42;;;;;;;2.97;1.13;;;16.00;99.90;;;;;;5052152;28;20029;-70
2021/03/20 02:07:08;;;;;;;4.55;1.45;;;16.00;99.90;;;;;;5053004;28;20021;-70
2021/03/20 02:09:34;;;;;;;5.32;1.60;;;16.00;99.90;;;;;;5052759;28;20028;-70
2021/03/20 02:12:12;;;;;;;4.72;1.40;;;16.00;99.90;;;;;;5052519;28;20049;-70
2021/03/20 02:14:46;;;;;;;3.03;1.30;;;16.00;99.90;;;;;;5052577;28;20528;-71
2021/03/20 02:17:15;;;;;;;3.67;1.23;;;16.00;99.90;;;;;;5052409;28;20032;-70
2021/03/20 02:19:58;;;;;;;4.80;1.40;;;16.00;99.90;;;;;;5052775;28;20086;-71
2021/03/20 02:22:44;;;;;;;3.45;1.45;;;15.90;99.90;;;;;;5052341;28;20072;-70
2021/03/20 02:25:37;;;;;;;4.55;1.10;;;16.00;99.90;;;;;;5052677;28;20477;-70
2021/03/20 02:28:09;;;;;;;2.60;1.20;;;15.90;99.90;;;;;;5052172;28;20083;-70
2021/03/20 02:30:40;;;;;;;5.75;1.50;;;15.90;99.90;;;;;;5052518;28;20460;-71
2021/03/20 02:33:08;;;;;;;5.28;1.35;;;15.90;99.90;;;;;;5051600;28;20082;-70
2021/03/20 02:35:39;;;;;;;3.03;1.08;;;15.90;99.90;;;;;;5051579;28;20033;-70
2021/03/20 02:38:22;;;;;;;4.93;1.30;;;15.90;99.90;;;;;;5052049;28;20028;-70
2021/03/20 02:40:48;;;;;;;4.35;1.30;;;15.90;99.90;;;;;;5048646;28;20033;-71
2021/03/20 02:43:43;;;;;;;2.80;1.38;;;15.90;99.90;;;;;;5051796;28;20029;-70
2021/03/20 02:46:14;;;;;;;3.70;1.42;;;15.90;99.90;;;;;;5031805;28;20029;-70
2021/03/20 02:48:50;;;;;;;3.78;1.10;;;15.80;99.90;;;;;;5052283;28;20033;-70
2021/03/20 02:51:32;;;;;;;2.65;1.10;;;15.80;99.90;;;;;;5051850;28;20075;-69
2021/03/20 02:54:16;;;;;;;4.97;1.58;;;15.80;99.90;;;;;;5051664;28;20035;-70
2021/03/20 02:56:52;;;;;;;3.20;1.35;;;15.80;99.90;;;;;;5051293;28;20107;-70
2021/03/20 02:59:19;;;;;;;4.20;1.35;;;15.80;99.90;;;;;;5052038;28;20025;-70
2021/03/20 03:01:47;;;;;;;4.47;1.40;;;15.80;99.90;;;;;;5051501;28;20083;-70
2021/03/20 03:04:17;;;;;;;2.50;1.40;;;15.80;99.90;;;;;;5051566;28;20033;-70
2021/03/20 03:06:59;;;;;;;3.75;1.13;;;15.80;99.90;;;;;;5052100;28;20029;-71
2021/03/20 03:09:47;;;;;;;2.17;1.10;;;15.80;99.90;;;;;;5052015;28;20036;-70
2021/03/20 03:12:22;;;;;;;3.78;1.20;;;15.80;99.90;;;;;;5052072;28;20029;-70
2021/03/20 03:15:06;;;;;;;4.32;1.30;;;15.80;99.90;;;;;;5051389;28;20066;-69
2021/03/20 03:17:35;;;;;;;2.70;1.15;;;15.80;99.90;;;;;;5050452;28;20419;-70
2021/03/20 03:20:12;;;;;;;3.75;1.40;;;15.80;99.90;;;;;;5051689;28;20021;-70
2021/03/20 03:23:06;;;;;;;5.85;1.60;;;15.80;99.90;;;;;;5051971;28;20029;-70
2021/03/20 03:25:35;;;;;;;4.60;1.20;;;15.80;99.90;;;;;;5046342;28;20051;-70
2021/03/20 03:28:05;;;;;;;2.85;1.20;;;15.80;99.90;;;;;;5051651;28;20040;-70
2021/03/20 03:30:31;;;;;;;3.05;1.02;;;15.80;99.90;;;;;;5051435;28;20481;-71
2021/03/20 03:33:12;;;;;;;3.08;1.10;;;15.80;99.90;;;;;;5051206;28;20428;-70
2021/03/20 03:35:51;;;;;;;4.85;1.08;;;15.80;99.90;;;;;;5051324;28;20036;-71
2021/03/20 03:38:38;;;;;;;3.58;1.15;;;15.80;99.90;;;;;;5051526;28;20032;-70
2021/03/20 03:41:14;;;;;;;2.80;1.17;;;15.80;99.90;;;;;;5051515;28;20043;-70
2021/03/20 03:43:39;;;;;;;3.35;1.27;;;15.80;99.90;;;;;;5051300;28;20102;-70
2021/03/20 03:46:07;;;;;;;3.08;1.23;;;15.80;99.90;;;;;;5051070;28;20113;-70
2021/03/20 03:48:33;;;;;;;5.72;1.30;;;15.80;99.90;;;;;;5032969;28;20101;-69
2021/03/20 03:51:17;;;;;;;4.00;1.20;;;15.80;99.90;;;;;;5051282;28;20107;-69
2021/03/20 03:53:43;;;;;;;2.42;1.10;;;15.80;99.90;;;;;;5051639;28;20025;-70
2021/03/20 03:56:18;;;;;;;2.38;1.00;;;15.80;99.90;;;;;;5051185;28;20032;-69
2021/03/20 03:59:28;;;;;;;2.35;0.95;;;15.80;99.90;;;;;;5051754;28;20025;-71
2021/03/20 04:02:17;;;;;;;3.80;1.42;;;15.80;99.90;;;;;;5020861;28;20049;-70
2021/03/20 04:04:58;;;;;;;4.57;1.10;;;15.80;99.90;;;;;;5051523;28;20492;-70
2021/03/20 04:07:35;;;;;;;3.15;1.10;;;15.80;99.90;;;;;;5050786;28;20037;-70
2021/03/20 04:10:17;;;;;;;1.80;0.85;;;15.80;99.90;;;;;;5055172;28;20462;-71
2021/03/20 04:12:59;;;;;;;1.80;0.90;;;15.80;99.90;;;;;;5036285;28;20036;-71
2021/03/20 04:15:48;;;;;;;2.88;1.13;;;15.70;99.90;;;;;;5054756;28;20104;-71
2021/03/20 04:18:35;;;;;;;3.13;0.90;;;15.80;99.90;;;;;;5055010;28;20473;-71
2021/03/20 04:21:22;;;;;;;3.33;1.13;;;15.80;99.90;;;;;;5054780;28;20507;-71
2021/03/20 04:24:12;;;;;;;2.72;1.00;;;15.80;99.90;;;;;;5054953;28;20477;-70
2021/03/20 04:26:55;;;;;;;3.25;1.20;;;15.80;99.90;;;;;;5054248;28;20595;-71
2021/03/20 04:29:40;;;;;;;2.08;1.02;;;15.80;99.90;;;;;;5054746;28;20033;-71
2021/03/20 04:32:10;;;;;;;4.28;0.90;;;15.80;99.90;;;;;;5054167;28;20511;-71
2021/03/20 04:34:55;;;;;;;2.47;0.98;;;15.80;99.90;;;;;;5054624;28;20029;-70
2021/03/20 04:37:24;;;;;;;2.70;1.00;;;15.70;99.90;;;;;;5054086;28;20017;-70
2021/03/20 04:39:53;;;;;;;2.63;1.00;;;15.80;99.90;;;;;;5054264;28;20048;-70
2021/03/20 04:42:32;;;;;;;2.60;1.02;;;15.80;99.90;;;;;;5054456;28;20025;-70
2021/03/20 04:45:18;;;;;;;2.53;0.93;;;15.70;99.90;;;;;;5054427;28;20100;-70
2021/03/20 04:47:44;;;;;;;2.70;1.00;;;15.70;99.90;;;;;;5054021;28;20045;-71
2021/03/20 04:50:21;;;;;;;2.92;1.10;;;15.80;99.90;;;;;;5053872;28;20041;-70
2021/03/20 04:52:48;;;;;;;2.42;0.80;;;15.80;99.90;;;;;;5054110;28;20388;-69
2021/03/20 04:55:15;;;;;;;2.03;0.93;;;15.80;99.90;;;;;;5053942;28;20032;-71
2021/03/20 04:57:54;;;;;;;2.72;1.23;;;15.80;99.90;;;;;;5054109;28;20078;-68
2021/03/20 05:00:35;;;;;;;7.22;1.20;;;15.80;99.90;;;;;;5054184;28;20040;-68
2021/03/20 05:03:06;;;;;;;3.83;0.98;;;15.70;99.90;;;;;;5053362;28;20052;-70
2021/03/20 05:05:38;;;;;;;3.00;1.10;;;15.80;99.90;;;;;;5054185;28;20029;-69
2021/03/20 05:08:11;;;;;;;5.40;1.02;;;15.80;99.90;;;;;;5053296;28;20381;-69
2021/03/20 05:10:44;;;;;;;2.83;1.00;;;15.80;99.90;;;;;;5053884;28;20024;-71
2021/03/20 05:13:24;;;;;;;3.67;0.93;;;15.70;99.90;;;;;;5053899;28;20075;-73
2021/03/20 05:15:51;;;;;;;3.90;1.25;;;15.80;99.90;;;;;;5053921;28;20043;-69
2021/03/20 05:18:17;;;;;;;5.05;1.20;;;15.70;99.90;;;;;;5053824;28;20104;-70
2021/03/20 05:20:43;;;;;;;2.55;1.08;;;15.80;99.90;;;;;;5052495;28;20107;-71
2021/03/20 05:23:11;;;;;;;2.55;1.02;;;15.80;99.90;;;;;;5053692;28;20029;-70
2021/03/20 05:25:36;;;;;;;3.65;1.23;;;15.80;99.90;;;;;;5053663;28;20118;-70
2021/03/20 05:28:02;;;;;;;3.72;1.10;;;15.70;99.90;;;;;;5053154;28;20436;-71
2021/03/20 05:30:28;;;;;;;5.93;1.40;;;15.70;99.90;;;;;;5053596;28;20112;-71
2021/03/20 05:32:53;;;;;;;3.15;1.13;;;15.80;99.90;;;;;;5052913;28;20083;-71
2021/03/20 05:35:24;;;;;;;4.00;1.20;;;15.80;99.90;;;;;;5053302;28;20021;-73
2021/03/20 05:37:49;;;;;;;4.78;1.27;;;15.70;99.90;;;;;;5042793;28;20033;-70
2021/03/20 05:40:34;;;;;;;4.70;0.82;;;15.70;99.90;;;;;;5053262;28;20017;-70
2021/03/20 05:43:13;;;;;;;;;;;15.70;99.90;;;;;;5053759;28;20033;-69
2021/03/20 05:45:53;;;;;;;2.95;1.10;;;15.70;99.90;;;;;;5053296;28;20007;-69
2021/03/20 05:48:23;;;;;;;4.13;1.27;;;15.70;99.90;;;;;;5052929;28;20040;-69
2021/03/20 05:51:15;;;;;;;4.40;1.25;;;15.70;99.90;;;;;;5053400;28;20056;-69
2021/03/20 05:54:06;;;;;;;3.55;1.30;;;15.80;99.90;;;;;;5053252;28;20055;-70
2021/03/20 05:56:59;;;;;;;6.45;1.30;;;15.70;99.90;;;;;;5052757;28;20029;-70
2021/03/20 06:00:01;;;;;;;3.40;1.30;;;15.70;99.90;;;;;;5053013;28;20017;-69
2021/03/20 06:02:54;;;;;;;3.83;1.40;;;15.70;99.90;;;;;;5052778;28;20115;-69
2021/03/20 06:05:29;;;;;;;1.52;1.05;;;15.70;99.90;;;;;;5051734;28;20038;-70
2021/03/20 06:08:47;;;;;;;7.65;1.58;;;15.70;99.90;;;;;;5052355;28;20029;-69
2021/03/20 06:11:36;;;;;;;3.33;1.48;;;15.70;99.90;;;;;;5015812;28;20034;-69
2021/03/20 06:14:19;;;;;;;3.50;1.75;;;15.70;99.90;;;;;;5035372;28;20029;-68
2021/03/20 06:16:47;;;;;;;6.38;1.55;;;15.70;99.90;;;;;;5051875;28;20021;-67
2021/03/20 06:19:34;;;;;;;10.55;1.85;;;15.70;99.90;;;;;;5052623;28;20056;-69
2021/03/20 06:22:18;;;;;;;4.88;1.73;;;15.70;99.90;;;;;;5052279;28;20036;-67
2021/03/20 06:24:47;;;;;;;5.97;1.90;;;15.70;99.90;;;;;;5052483;28;20103;-67
2021/03/20 06:27:20;;;;;;;3.30;2.00;;;15.70;99.90;;;;;;5052218;28;20032;-69
2021/03/20 06:30:05;;;;;;;5.40;2.10;;;15.70;99.90;;;;;;5052255;28;20029;-68
2021/03/20 06:32:37;;;;;;;4.70;2.08;;;15.70;99.90;;;;;;5044268;28;20033;-69
2021/03/20 06:35:29;;;;;;;4.20;1.88;;;15.60;99.90;;;;;;5051839;28;20099;-70
2021/03/20 06:37:58;;;;;;;5.13;2.10;;;15.70;99.90;;;;;;5049894;28;20086;-67
2021/03/20 06:40:27;;;;;;;4.68;1.83;;;15.70;99.90;;;;;;5052531;28;20029;-68
2021/03/20 06:42:53;;;;;;;3.67;1.92;;;15.60;99.90;;;;;;5052402;28;20149;-68
2021/03/20 06:45:21;;;;;;;5.43;2.17;;;15.70;99.90;;;;;;5051853;28;20025;-69
2021/03/20 06:47:49;;;;;;;5.57;1.88;;;15.70;99.90;;;;;;5051983;28;20037;-67
2021/03/20 06:50:21;;;;;;;3.65;1.88;;;15.70;99.90;;;;;;5051997;28;20044;-69
2021/03/20 06:52:55;;;;;;;4.30;1.80;;;15.60;99.90;;;;;;5051650;28;20049;-68
2021/03/20 06:55:33;;;;;;;4.72;1.92;;;15.60;99.90;;;;;;5052174;28;20057;-66
2021/03/20 06:58:04;;;;;;;4.50;2.20;;;15.60;99.90;;;;;;5051736;28;20114;-67
2021/03/20 07:00:33;;;;;;;5.03;2.47;;;15.60;99.90;;;;;;5051169;28;20033;-68
2021/03/20 07:03:24;;;;;;;3.25;2.50;;;15.60;99.90;;;;;;5052085;28;20021;-68
2021/03/20 07:06:08;;;;;;;5.03;2.90;;;15.20;97.70;;;;;;5051531;28;20037;-65
2021/03/20 07:09:00;;;;;;;5.80;2.80;;;15.10;97.30;;;;;;5051574;28;20033;-65
2021/03/20 07:11:29;;;;;;;4.20;2.58;;;15.00;97.00;;;;;;5052158;28;20036;-66
2021/03/20 07:14:07;;;;;;;6.78;3.10;;;15.00;97.30;;;;;;5052172;28;20492;-66
2021/03/20 07:16:56;;;;;;;3.75;2.80;;;15.10;97.60;;;;;;5051581;28;20029;-66
2021/03/20 07:19:23;;;;;;;5.30;2.80;;;15.20;98.90;;;;;;5052005;28;20021;-67
2021/03/20 07:21:57;;;;;;;5.13;2.60;;;15.30;98.60;;;;;;5050306;28;20037;-67
2021/03/20 07:24:36;;;;;;;3.95;2.58;;;15.40;98.00;;;;;;5050797;28;20036;-67
2021/03/20 07:27:25;;;;;;;3.17;2.30;;;15.40;97.60;;;;;;5049246;28;20040;-67
2021/03/20 07:29:59;;;;;;;3.03;2.28;;;15.50;97.30;;;;;;5044301;28;20037;-67
2021/03/20 07:32:25;;;;;;;3.72;2.45;;;15.50;97.10;;;;;;5043526;28;20025;-67
2021/03/20 07:34:55;;;;;;;5.15;2.28;;;15.60;97.30;;;;;;5050566;28;20029;-68
2021/03/20 07:37:28;;;;;;;5.90;2.22;;;15.60;97.10;;;;;;5048756;28;20045;-65
2021/03/20 07:39:57;;;;;;;4.72;2.15;;;15.60;97.80;;;;;;5048336;28;20017;-66
2021/03/20 07:42:25;;;;;;;3.58;2.08;;;15.70;97.40;;;;;;5048890;28;20044;-67
2021/03/20 07:45:11;;;;;;;6.03;2.22;;;15.70;98.20;;;;;;5054235;28;20023;-68
2021/03/20 07:47:40;;;;;;;4.68;2.08;;;15.80;97.80;;;;;;5044877;28;20397;-74
2021/03/20 07:50:17;;;;;;;6.03;2.03;;;15.80;97.70;;;;;;5053392;28;20033;-70
2021/03/20 07:52:43;;;;;;;5.65;1.73;;;15.70;97.80;;;;;;5049303;28;20028;-69
2021/03/20 07:55:11;;;;;;;7.05;5.82;;;15.80;97.30;;;;;;5053465;28;20032;-66
2021/03/20 07:57:38;;;;;;;13.85;8.98;;;15.60;96.80;;;;;;5054212;28;20350;-68
2021/03/20 08:00:23;;;;;;;14.35;10.95;;;15.10;96.70;;;;;;5048217;28;20119;-67
2021/03/20 08:02:49;;;;;;;15.63;12.30;;;14.60;96.80;;;;;;5053010;28;20818;-71
2021/03/20 08:05:21;;;;;;;15.43;13.30;;;14.40;97.10;;;;;;5048482;28;20025;-70
2021/03/20 08:07:52;;;;;;;15.30;13.68;;;14.30;97.10;;;;;;5052423;28;20029;-71
2021/03/20 08:10:28;;;;;;;17.45;14.18;;;14.20;97.10;;;;;;5048498;28;20029;-71
2021/03/20 08:12:57;;;;;;;21.35;16.00;;;14.10;97.10;;;;;;5050690;28;20424;-70
2021/03/20 08:15:46;;;;;;;17.85;15.63;;;13.90;97.10;;;;;;5053019;28;20027;-73
2021/03/20 08:18:23;;;;;;;19.20;17.02;;;13.90;97.30;;;;;;5053008;28;20025;-70
2021/03/20 08:21:13;;;;;;;21.00;17.33;;;13.90;97.40;;;;;;5047158;28;20432;-70
2021/03/20 08:24:06;;;;;;;21.77;18.33;;;13.80;97.30;;;;;;5047738;28;20025;-73
2021/03/20 08:27:05;;;;;;;7.47;4.40;;;13.80;97.70;;;;;;5048399;28;20029;-79
2021/03/20 08:29:55;;;;;;;10.20;3.85;;;14.90;98.40;;;;;;5054036;28;20025;-77
2021/03/20 08:32:36;;;;;;;4.75;2.55;;;15.80;96.90;;;;;;5053940;28;20480;-74
2021/03/20 08:35:02;;;;;;;6.70;2.90;;;16.20;96.10;;;;;;5051097;28;20516;-70
2021/03/20 08:38:06;;;;;;;6.07;3.10;;;16.40;96.10;;;;;;5038080;28;20128;-73
2021/03/20 08:40:57;;;;;;;5.60;3.00;;;16.50;96.30;;;;;;5051635;28;20400;-75
2021/03/20 08:43:51;;;;;;;5.60;2.67;;;16.60;96.50;;;;;;5053385;28;20124;-75
2021/03/20 08:46:50;;;;;;;10.18;2.85;;;16.70;96.40;;;;;;5048983;28;20055;-74
2021/03/20 08:49:21;;;;;;;4.45;2.22;;;16.80;96.30;;;;;;5040647;28;20020;-73
2021/03/20 08:51:50;;;;;;;7.50;2.50;;;16.90;95.90;;;;;;5051860;28;20035;-77
2021/03/20 08:54:49;;;;;;;4.45;2.30;;;17.00;95.90;;;;;;5050692;28;20025;-76
2021/03/20 08:57:33;;;;;;;4.25;1.90;;;17.10;96.00;;;;;;5041368;28;20029;-75
2021/03/20 09:00:00;;;;;;;;;;;17.20;96.80;;;;;;5053571;28;20033;-75
2021/03/20 09:02:26;;;;;;;3.35;2.10;;;17.30;95.80;;;;;;5053738;28;19916;-66
2021/03/20 09:05:02;;;;;;;4.28;2.17;;;17.30;95.70;;;;;;5052547;28;20024;-70
2021/03/20 09:07:37;;;;;;;4.80;2.20;;;17.40;95.60;;;;;;5043044;28;20025;-72
2021/03/20 09:10:06;;;;;;;5.95;2.17;;;17.50;96.20;;;;;;5052818;28;20028;-74
2021/03/20 09:12:42;;;;;;;3.67;2.10;;;17.50;96.30;;;;;;5052820;28;20025;-71
2021/03/20 09:15:18;;;;;;;3.53;2.03;;;17.60;96.00;;;;;;5052961;28;20029;-74
2021/03/20 09:17:45;;;;;;;3.95;2.03;;;17.70;96.00;;;;;;5052229;28;20495;-71
2021/03/20 09:20:21;;;;;;;4.53;2.13;;;17.80;95.50;;;;;;5051118;28;20439;-70
2021/03/20 09:22:49;;;;;;;4.20;2.33;;;17.90;95.30;;;;;;5036313;28;20032;-75
2021/03/20 09:25:33;;;;;;;4.50;1.90;;;18.00;95.40;;;;;;5051969;28;20079;-66
2021/03/20 09:28:13;;;;;;;4.40;1.73;;;17.80;95.70;;;;;;5046897;28;20025;-72
2021/03/20 09:30:48;;;;;;;6.22;2.25;;;17.90;95.60;;;;;;5052182;28;20110;-71
2021/03/20 09:33:36;;;;;;;3.22;1.95;;;18.10;95.10;;;;;;5048610;28;20481;-71
2021/03/20 09:36:02;;;;;;;6.72;2.30;;;18.20;95.20;;;;;;5050693;28;20037;-71
2021/03/20 09:38:33;;;;;;;3.35;2.00;;;18.20;94.90;;;;;;5051351;28;20376;-72
2021/03/20 09:41:05;;;;;;;5.22;1.70;;;18.30;94.80;;;;;;5049937;28;20037;-68
2021/03/20 09:43:42;;;;;;;4.20;1.88;;;18.30;94.80;;;;;;5051200;28;20029;-67
2021/03/20 09:46:26;;;;;;;4.28;1.80;;;18.40;94.80;;;;;;5052309;28;20033;-71
2021/03/20 09:48:52;;;;;;;3.72;2.10;;;18.50;94.80;;;;;;5036169;28;20073;-67
2021/03/20 09:51:49;;;;;;;3.47;1.77;;;18.50;94.70;;;;;;5049408;28;20025;-71
2021/03/20 09:54:32;;;;;;;4.38;1.90;;;18.60;94.70;;;;;;5050952;28;20450;-71
2021/03/20 09:57:27;;;;;;;4.13;1.70;;;18.60;94.60;;;;;;5050881;28;20521;-69
2021/03/20 09:59:53;;;;;;;2.63;1.65;;;18.70;94.50;;;;;;5050916;28;20067;-71
2021/03/20 10:02:18;;;;;;;4.20;1.85;;;18.80;94.50;;;;;;5051202;28;20049;-71
2021/03/20 10:05:24;;;;;;;6.00;1.65;;;18.80;94.40;;;;;;5050229;28;20048;-72
2021/03/20 10:07:58;;;;;;;3.28;1.50;;;18.90;94.40;;;;;;5051150;28;20025;-71
2021/03/20 10:10:27;;;;;;;2.95;1.70;;;19.00;94.30;;;;;;5048906;28;20037;-67
2021/03/20 10:13:19;;;;;;;4.05;1.63;;;19.00;94.20;;;;;;5051255;28;20025;-67
2021/03/20 10:15:56;;;;;;;4.10;2.03;;;19.10;94.10;;;;;;5042101;28;20536;-69
2021/03/20 10:18:34;;;;;;;5.28;1.63;;;19.20;94.10;;;;;;5049736;28;20044;-69
2021/03/20 10:21:11;;;;;;;3.67;1.50;;;19.20;94.00;;;;;;5050624;28;20395;-68
2021/03/20 10:24:09;;;;;;;3.70;1.73;;;19.30;94.00;;;;;;5051716;28;20021;-70
2021/03/20 10:26:49;;;;;;;3.50;1.58;;;19.40;93.90;;;;;;5037167;28;20045;-67
2021/03/20 10:29:18;;;;;;;2.42;1.42;;;19.40;93.80;;;;;;5051837;28;20039;-67
2021/03/20 10:31:49;;;;;;;3.80;1.60;;;19.50;93.70;;;;;;5050283;28;20029;-67
2021/03/20 10:34:17;;;;;;;2.33;1.50;;;19.60;93.70;;;;;;5050091;28;20083;-68
2021/03/20 10:36:48;;;;;;;3.25;1.60;;;19.60;93.60;;;;;;5051264;28;20013;-66
2021/03/20 10:39:39;;;;;;;3.05;1.38;;;19.70;93.50;;;;;;5050654;28;20036;-66
2021/03/20 10:42:26;;;;;;;2.42;1.40;;;19.80;93.50;;;;;;5050329;28;20044;-66
2021/03/20 10:44:57;;;;;;;3.65;1.35;;;19.80;93.30;;;;;;5049843;28;20488;-67
2021/03/20 10:47:37;;;;;;;1.95;1.20;;;19.90;93.30;;;;;;5051391;28;20383;-67
2021/03/20 10:50:05;;;;;;;3.65;1.10;;;20.00;93.20;;;;;;5049128;28;20040;-67
2021/03/20 10:52:37;;;;;;;1.85;1.10;;;20.00;93.10;;;;;;5049942;28;20039;-68
2021/03/20 10:55:18;;;;;;;2.33;1.15;;;20.10;93.00;;;;;;5049465;28;20025;-70
2021/03/20 10:57:46;;;;;;;3.45;1.25;;;20.20;93.00;;;;;;5051105;28;20029;-66
2021/03/20 11:00:19;;;;;;;2.53;1.23;;;20.20;92.90;;;;;;5049682;28;20040;-67
2021/03/20 11:02:45;;;;;;;1.50;1.00;;;20.30;92.80;;;;;;5034893;28;20074;-72
2021/03/20 11:05:20;;;;;;;2.40;1.23;;;20.40;92.70;;;;;;5050856;28;20033;-74
2021/03/20 11:07:49;;;;;;;2.08;1.13;;;20.50;92.80;;;;;;5050285;28;20771;-68
2021/03/20 11:10:23;;;;;;;1.85;1.20;;;20.50;93.00;;;;;;5050106;28;20028;-68
2021/03/20 11:12:50;;;;;;;2.08;1.13;;;20.50;92.90;;;;;;5049976;28;20481;-70
2021/03/20 11:15:28;;;;;;;2.95;1.13;;;20.50;92.80;;;;;;5051286;28;20029;-73
2021/03/20 11:17:56;;;;;;;2.75;1.15;;;20.60;93.10;;;;;;5043141;28;20029;-68
2021/03/20 11:20:39;;;;;;;2.83;1.10;;;20.70;92.70;;;;;;5050062;28;20043;-68
2021/03/20 11:23:06;;;;;;;1.88;1.00;;;20.60;92.80;;;;;;5050672;28;20389;-69
2021/03/20 11:25:41;;;;;;;1.63;0.93;;;20.60;92.90;;;;;;5051286;28;20025;-68
2021/03/20 11:28:08;;;;;;;2.42;1.15;;;20.60;92.90;;;;;;5048441;28;20083;-68
2021/03/20 11:30:45;;;;;;;2.15;1.10;;;20.60;93.00;;;;;;5050094;28;20056;-69
2021/03/20 11:33:15;;;;;;;2.08;1.17;;;20.50;93.00;;;;;;5051089;28;20044;-67
2021/03/20 11:35:45;;;;;;;1.70;1.08;;;20.50;93.00;;;;;;5049118;28;20068;-68
2021/03/20 11:38:13;;;;;;;2.28;1.00;;;20.50;93.30;;;;;;5048407;28;20064;-72
2021/03/20 11:40:42;;;;;;;2.22;1.10;;;20.40;92.90;;;;;;5050438;28;20025;-67
2021/03/20 11:43:19;;;;;;;2.47;1.15;;;20.40;92.90;;;;;;5050083;28;20013;-69
2021/03/20 11:45:44;;;;;;;2.95;1.17;;;20.40;93.00;;;;;;5050975;28;20411;-67
2021/03/20 11:48:41;;;;;;;1.48;1.02;;;20.40;92.90;;;;;;5049696;28;20105;-67
2021/03/20 11:51:14;;;;;;;1.70;1.00;;;20.30;93.10;;;;;;5041318;28;20060;-70
2021/03/20 11:53:43;;;;;;;1.88;1.27;;;20.30;93.10;;;;;;5047583;28;20043;-67
2021/03/20 11:56:17;;;;;;;2.30;1.00;;;20.30;93.50;;;;;;5050920;28;20366;-67
2021/03/20 11:58:51;;;;;;;1.33;1.00;;;20.20;93.20;;;;;;5048456;28;20021;-68
2021/03/20 12:01:31;;;;;;;;;;;20.30;93.20;;;;;;5049496;28;20037;-68
2021/03/20 12:04:25;;;;;;;1.55;1.02;;;20.20;93.20;;;;;;5041895;28;19966;-70
2021/03/20 12:06:52;;;;;;;1.98;0.80;;;20.20;93.30;;;;;;5035207;28;20033;-67
2021/03/20 12:09:24;;;;;;;1.38;1.02;;;20.20;93.40;;;;;;5048989;28;20035;-72
2021/03/20 12:11:51;;;;;;;2.35;1.20;;;20.20;93.20;;;;;;5049469;28;20059;-72
2021/03/20 12:14:38;;;;;;;1.75;1.10;;;20.20;93.30;;;;;;5049412;28;20032;-72
2021/03/20 12:17:15;;;;;;;3.25;1.35;;;20.20;93.40;;;;;;5049623;28;20035;-74
2021/03/20 12:19:58;;;;;;;3.00;1.27;;;20.20;93.20;;;;;;5041484;28;20107;-74
2021/03/20 12:22:47;;;;;;;2.50;1.30;;;20.20;93.30;;;;;;5049246;28;20059;-69
2021/03/20 12:25:13;;;;;;;2.45;1.20;;;20.20;93.30;;;;;;5046965;28;20028;-69
2021/03/20 12:27:39;;;;;;;1.77;1.10;;;20.20;93.30;;;;;;5047566;28;20028;-71
2021/03/20 12:30:16;;;;;;;4.93;1.52;;;20.20;93.30;;;;;;5047100;28;20104;-70
2021/03/20 12:32:45;;;;;;;3.03;1.45;;;20.20;93.30;;;;;;5049491;28;20036;-69
2021/03/20 12:35:19;;;;;;;2.40;1.23;;;20.10;93.30;;;;;;5048858;28;20025;-72
2021/03/20 12:37:46;;;;;;;2.92;1.38;;;20.10;93.20;;;;;;5049530;28;20037;-70
2021/03/20 12:40:14;;;;;;;2.65;1.35;;;20.10;93.20;;;;;;5048118;28;20050;-73
2021/03/20 12:42:40;;;;;;;5.43;1.38;;;20.10;93.10;;;;;;5049966;28;20408;-73
2021/03/20 12:45:08;;;;;;;1.90;1.27;;;20.10;93.10;;;;;;5051501;28;20032;-69
2021/03/20 12:47:34;;;;;;;2.75;1.60;;;20.10;93.10;;;;;;5045741;28;20101;-72
2021/03/20 12:50:00;;;;;;;2.33;1.23;;;20.10;93.40;;;;;;5053359;28;20032;-70
2021/03/20 12:52:28;;;;;;;3.22;1.10;;;20.00;93.20;;;;;;5050464;28;20036;-68
2021/03/20 12:54:57;;;;;;;2.90;1.30;;;20.10;93.10;;;;;;5054441;28;20368;-67
2021/03/20 12:57:29;;;;;;;3.22;1.67;;;20.00;93.00;;;;;;5049404;28;20029;-67
2021/03/20 12:59:55;;;;;;;3.85;1.40;;;20.00;93.00;;;;;;5052275;28;20021;-70
2021/03/20 13:02:22;;;;;;;3.35;1.48;;;20.00;92.90;;;;;;5052339;28;20492;-67
2021/03/20 13:04:49;;;;;;;3.35;1.40;;;20.00;92.90;;;;;;5053185;28;20025;-70
2021/03/20 13:07:15;;;;;;;5.00;1.20;;;20.00;92.90;;;;;;5051128;28;20102;-67
2021/03/20 13:09:41;;;;;;;1.90;1.38;;;20.00;92.90;;;;;;5052359;28;20104;-67
2021/03/20 13:12:10;;;;;;;2.03;1.17;;;20.00;92.90;;;;;;5051928;28;20572;-68
2021/03/20 13:14:36;;;;;;;1.98;1.27;;;20.00;92.90;;;;;;5050444;28;20032;-67
2021/03/20 13:17:03;;;;;;;2.78;1.10;;;20.00;93.00;;;;;;5051471;28;20032;-70
2021/03/20 13:19:29;;;;;;;2.63;1.30;;;20.00;93.00;;;;;;5052508;28;20385;-67
2021/03/20 13:21:55;;;;;;;2.67;1.30;;;20.00;93.00;;;;;;5049953;28;20045;-69
2021/03/20 13:24:21;;;;;;;3.10;1.20;;;20.00;93.00;;;;;;5052415;28;20013;-67
2021/03/20 13:26:47;;;;;;;2.45;0.93;;;20.00;93.00;;;;;;5051756;28;20535;-68